sensor_id;sensor_type;location;lat;lon;timestamp;temperature;humidity
62259;DHT22;48241;48.824;10.102;2022-12-08T00:01:17;3.40;92.00
62259;DHT22;48241;48.824;10.102;2022-12-08T00:03:43;2.90;91.50
62259;DHT22;48241;48.824;10.102;2022-12-08T00:06:29;2.80;92.50
62259;DHT22;48241;48.824;10.102;2022-12-08T00:09:17;3.10;92.80
62259;DHT22;48241;48.824;10.102;2022-12-08T00:11:48;3.00;93.40
62259;DHT22;48241;48.824;10.102;2022-12-08T00:14:14;2.80;93.40
62259;DHT22;48241;48.824;10.102;2022-12-08T00:16:40;2.90;93.70
62259;DHT22;48241;48.824;10.102;2022-12-08T00:19:09;3.10;93.00
62259;DHT22;48241;48.824;10.102;2022-12-08T00:21:44;3.20;93.00
62259;DHT22;48241;48.824;10.102;2022-12-08T00:24:10;3.00;93.00
62259;DHT22;48241;48.824;10.102;2022-12-08T00:26:36;2.80;93.10
62259;DHT22;48241;48.824;10.102;2022-12-08T00:29:01;2.90;93.20
62259;DHT22;48241;48.824;10.102;2022-12-08T00:31:27;2.80;93.30
62259;DHT22;48241;48.824;10.102;2022-12-08T00:33:52;2.80;93.30
62259;DHT22;48241;48.824;10.102;2022-12-08T00:36:18;2.60;93.00
62259;DHT22;48241;48.824;10.102;2022-12-08T00:38:44;2.60;93.30
62259;DHT22;48241;48.824;10.102;2022-12-08T00:41:13;2.60;93.00
62259;DHT22;48241;48.824;10.102;2022-12-08T00:43:39;2.70;93.20
62259;DHT22;48241;48.824;10.102;2022-12-08T00:46:05;2.60;93.10
62259;DHT22;48241;48.824;10.102;2022-12-08T00:48:31;2.70;93.40
62259;DHT22;48241;48.824;10.102;2022-12-08T00:50:56;2.50;93.30
62259;DHT22;48241;48.824;10.102;2022-12-08T00:53:22;2.50;93.20
62259;DHT22;48241;48.824;10.102;2022-12-08T00:55:48;2.60;93.40
62259;DHT22;48241;48.824;10.102;2022-12-08T00:58:13;3.40;93.60
62259;DHT22;48241;48.824;10.102;2022-12-08T01:00:40;2.30;93.60
62259;DHT22;48241;48.824;10.102;2022-12-08T01:03:12;2.40;93.50
62259;DHT22;48241;48.824;10.102;2022-12-08T01:05:38;2.40;93.20
62259;DHT22;48241;48.824;10.102;2022-12-08T01:08:07;2.30;93.20
62259;DHT22;48241;48.824;10.102;2022-12-08T01:10:37;2.30;92.90
62259;DHT22;48241;48.824;10.102;2022-12-08T01:13:04;2.20;93.30
62259;DHT22;48241;48.824;10.102;2022-12-08T01:15:30;2.20;93.30
62259;DHT22;48241;48.824;10.102;2022-12-08T01:17:55;2.10;93.40
62259;DHT22;48241;48.824;10.102;2022-12-08T01:20:21;2.10;93.30
62259;DHT22;48241;48.824;10.102;2022-12-08T01:22:46;2.00;93.40
62259;DHT22;48241;48.824;10.102;2022-12-08T01:25:12;2.00;93.80
62259;DHT22;48241;48.824;10.102;2022-12-08T01:27:37;2.00;93.90
62259;DHT22;48241;48.824;10.102;2022-12-08T01:30:04;2.00;94.40
62259;DHT22;48241;48.824;10.102;2022-12-08T01:32:29;1.90;94.30
62259;DHT22;48241;48.824;10.102;2022-12-08T01:34:55;2.00;94.10
62259;DHT22;48241;48.824;10.102;2022-12-08T01:37:20;2.10;93.90
62259;DHT22;48241;48.824;10.102;2022-12-08T01:39:46;2.00;93.70
62259;DHT22;48241;48.824;10.102;2022-12-08T01:42:19;1.90;94.00
62259;DHT22;48241;48.824;10.102;2022-12-08T01:44:57;2.00;94.20
62259;DHT22;48241;48.824;10.102;2022-12-08T01:47:26;1.90;94.20
62259;DHT22;48241;48.824;10.102;2022-12-08T01:49:54;1.90;94.20
62259;DHT22;48241;48.824;10.102;2022-12-08T01:52:28;2.00;93.80
62259;DHT22;48241;48.824;10.102;2022-12-08T01:55:03;2.00;93.50
62259;DHT22;48241;48.824;10.102;2022-12-08T01:57:34;1.90;93.90
62259;DHT22;48241;48.824;10.102;2022-12-08T02:00:10;1.90;94.10
62259;DHT22;48241;48.824;10.102;2022-12-08T02:02:52;1.80;94.40
62259;DHT22;48241;48.824;10.102;2022-12-08T02:05:28;1.80;94.10
62259;DHT22;48241;48.824;10.102;2022-12-08T02:07:54;1.50;94.20
62259;DHT22;48241;48.824;10.102;2022-12-08T02:10:22;1.60;94.90
62259;DHT22;48241;48.824;10.102;2022-12-08T02:12:50;1.80;94.50
62259;DHT22;48241;48.824;10.102;2022-12-08T02:15:17;1.80;94.50
62259;DHT22;48241;48.824;10.102;2022-12-08T02:18:22;1.70;94.30
62259;DHT22;48241;48.824;10.102;2022-12-08T02:21:46;1.80;94.40
62259;DHT22;48241;48.824;10.102;2022-12-08T02:24:12;1.70;93.90
62259;DHT22;48241;48.824;10.102;2022-12-08T02:39:01;1.60;94.20
62259;DHT22;48241;48.824;10.102;2022-12-08T02:44:05;1.60;94.40
62259;DHT22;48241;48.824;10.102;2022-12-08T02:46:39;1.60;94.50
62259;DHT22;48241;48.824;10.102;2022-12-08T02:49:05;1.60;94.30
62259;DHT22;48241;48.824;10.102;2022-12-08T02:51:31;1.70;94.30
62259;DHT22;48241;48.824;10.102;2022-12-08T02:53:57;1.80;94.50
62259;DHT22;48241;48.824;10.102;2022-12-08T03:13:19;2.80;94.10
62259;DHT22;48241;48.824;10.102;2022-12-08T03:15:48;2.90;94.00
62259;DHT22;48241;48.824;10.102;2022-12-08T03:18:16;2.70;94.20
62259;DHT22;48241;48.824;10.102;2022-12-08T03:20:44;2.90;94.20
62259;DHT22;48241;48.824;10.102;2022-12-08T03:23:12;3.10;93.60
62259;DHT22;48241;48.824;10.102;2022-12-08T03:25:43;3.10;93.90
62259;DHT22;48241;48.824;10.102;2022-12-08T03:28:13;3.30;93.90
62259;DHT22;48241;48.824;10.102;2022-12-08T03:30:40;3.50;93.10
62259;DHT22;48241;48.824;10.102;2022-12-08T03:33:29;3.60;93.20
62259;DHT22;48241;48.824;10.102;2022-12-08T03:35:56;3.70;92.70
62259;DHT22;48241;48.824;10.102;2022-12-08T03:38:23;3.90;92.50
62259;DHT22;48241;48.824;10.102;2022-12-08T03:40:48;3.80;92.40
62259;DHT22;48241;48.824;10.102;2022-12-08T03:43:34;3.80;92.30
62259;DHT22;48241;48.824;10.102;2022-12-08T03:46:00;4.00;91.60
62259;DHT22;48241;48.824;10.102;2022-12-08T03:48:25;3.90;91.10
62259;DHT22;48241;48.824;10.102;2022-12-08T03:50:51;3.90;91.00
62259;DHT22;48241;48.824;10.102;2022-12-08T03:53:16;3.80;90.60
62259;DHT22;48241;48.824;10.102;2022-12-08T03:55:42;3.70;90.90
62259;DHT22;48241;48.824;10.102;2022-12-08T03:58:07;3.60;91.90
62259;DHT22;48241;48.824;10.102;2022-12-08T04:00:33;3.80;91.50
62259;DHT22;48241;48.824;10.102;2022-12-08T04:02:59;3.70;91.40
62259;DHT22;48241;48.824;10.102;2022-12-08T04:05:24;3.80;91.10
62259;DHT22;48241;48.824;10.102;2022-12-08T04:07:50;3.70;91.50
62259;DHT22;48241;48.824;10.102;2022-12-08T04:10:15;3.70;91.40
62259;DHT22;48241;48.824;10.102;2022-12-08T04:12:41;3.80;91.40
62259;DHT22;48241;48.824;10.102;2022-12-08T04:15:07;3.90;90.90
62259;DHT22;48241;48.824;10.102;2022-12-08T04:17:33;3.90;91.00
62259;DHT22;48241;48.824;10.102;2022-12-08T04:19:58;3.90;91.00
62259;DHT22;48241;48.824;10.102;2022-12-08T04:22:24;3.90;90.70
62259;DHT22;48241;48.824;10.102;2022-12-08T04:24:49;4.00;90.50
62259;DHT22;48241;48.824;10.102;2022-12-08T04:27:15;3.70;90.70
62259;DHT22;48241;48.824;10.102;2022-12-08T04:29:40;3.60;90.50
62259;DHT22;48241;48.824;10.102;2022-12-08T04:32:06;3.50;90.10
62259;DHT22;48241;48.824;10.102;2022-12-08T04:34:31;3.30;90.10
62259;DHT22;48241;48.824;10.102;2022-12-08T04:36:57;3.10;90.10
62259;DHT22;48241;48.824;10.102;2022-12-08T04:39:23;2.70;90.70
62259;DHT22;48241;48.824;10.102;2022-12-08T04:41:48;2.70;91.20
62259;DHT22;48241;48.824;10.102;2022-12-08T04:44:14;2.70;91.60
62259;DHT22;48241;48.824;10.102;2022-12-08T04:46:39;2.80;91.70
62259;DHT22;48241;48.824;10.102;2022-12-08T04:49:05;2.80;91.90
62259;DHT22;48241;48.824;10.102;2022-12-08T04:51:30;2.90;91.60
62259;DHT22;48241;48.824;10.102;2022-12-08T04:53:56;3.10;91.80
62259;DHT22;48241;48.824;10.102;2022-12-08T04:56:21;3.10;91.70
62259;DHT22;48241;48.824;10.102;2022-12-08T04:58:47;3.20;91.40
62259;DHT22;48241;48.824;10.102;2022-12-08T05:01:13;3.20;91.30
62259;DHT22;48241;48.824;10.102;2022-12-08T05:03:38;3.20;91.50
62259;DHT22;48241;48.824;10.102;2022-12-08T05:06:04;3.20;91.70
62259;DHT22;48241;48.824;10.102;2022-12-08T05:08:31;3.30;91.50
62259;DHT22;48241;48.824;10.102;2022-12-08T05:11:07;3.40;91.30
62259;DHT22;48241;48.824;10.102;2022-12-08T05:13:33;3.40;91.20
62259;DHT22;48241;48.824;10.102;2022-12-08T05:16:09;3.50;91.10
62259;DHT22;48241;48.824;10.102;2022-12-08T05:18:35;3.50;91.10
62259;DHT22;48241;48.824;10.102;2022-12-08T05:21:01;3.40;90.60
62259;DHT22;48241;48.824;10.102;2022-12-08T05:23:27;3.30;90.70
62259;DHT22;48241;48.824;10.102;2022-12-08T05:25:52;3.30;90.80
62259;DHT22;48241;48.824;10.102;2022-12-08T05:28:18;3.20;90.70
62259;DHT22;48241;48.824;10.102;2022-12-08T05:30:44;3.10;90.90
62259;DHT22;48241;48.824;10.102;2022-12-08T05:33:09;3.10;91.00
62259;DHT22;48241;48.824;10.102;2022-12-08T05:35:35;3.00;91.10
62259;DHT22;48241;48.824;10.102;2022-12-08T05:38:01;3.10;91.00
62259;DHT22;48241;48.824;10.102;2022-12-08T05:40:26;3.10;91.30
62259;DHT22;48241;48.824;10.102;2022-12-08T05:42:52;3.10;91.60
62259;DHT22;48241;48.824;10.102;2022-12-08T05:45:17;3.00;91.50
62259;DHT22;48241;48.824;10.102;2022-12-08T05:47:43;3.10;91.40
62259;DHT22;48241;48.824;10.102;2022-12-08T05:50:09;3.30;90.90
62259;DHT22;48241;48.824;10.102;2022-12-08T05:52:34;3.10;90.90
62259;DHT22;48241;48.824;10.102;2022-12-08T05:55:00;2.90;90.90
62259;DHT22;48241;48.824;10.102;2022-12-08T05:57:26;2.90;91.10
62259;DHT22;48241;48.824;10.102;2022-12-08T05:59:51;2.70;91.40
62259;DHT22;48241;48.824;10.102;2022-12-08T06:02:17;2.90;91.50
62259;DHT22;48241;48.824;10.102;2022-12-08T06:04:42;2.70;91.50
62259;DHT22;48241;48.824;10.102;2022-12-08T06:07:08;2.70;91.40
62259;DHT22;48241;48.824;10.102;2022-12-08T06:09:34;2.50;91.10
62259;DHT22;48241;48.824;10.102;2022-12-08T06:12:00;2.30;91.40
62259;DHT22;48241;48.824;10.102;2022-12-08T06:14:26;2.30;91.70
62259;DHT22;48241;48.824;10.102;2022-12-08T06:16:51;2.20;91.60
62259;DHT22;48241;48.824;10.102;2022-12-08T06:19:17;2.30;91.90
62259;DHT22;48241;48.824;10.102;2022-12-08T06:21:43;2.20;92.30
62259;DHT22;48241;48.824;10.102;2022-12-08T06:24:08;2.10;92.30
62259;DHT22;48241;48.824;10.102;2022-12-08T06:26:34;2.10;92.10
62259;DHT22;48241;48.824;10.102;2022-12-08T06:29:00;2.10;92.20
62259;DHT22;48241;48.824;10.102;2022-12-08T06:31:26;1.90;92.10
62259;DHT22;48241;48.824;10.102;2022-12-08T06:33:53;1.80;92.30
62259;DHT22;48241;48.824;10.102;2022-12-08T06:36:21;1.80;92.10
62259;DHT22;48241;48.824;10.102;2022-12-08T06:38:47;1.70;92.50
62259;DHT22;48241;48.824;10.102;2022-12-08T06:41:13;1.80;92.50
62259;DHT22;48241;48.824;10.102;2022-12-08T06:43:39;1.60;92.50
62259;DHT22;48241;48.824;10.102;2022-12-08T06:46:07;1.70;92.70
62259;DHT22;48241;48.824;10.102;2022-12-08T06:48:33;1.60;92.60
62259;DHT22;48241;48.824;10.102;2022-12-08T06:53:32;1.50;92.80
62259;DHT22;48241;48.824;10.102;2022-12-08T06:55:57;1.60;92.60
62259;DHT22;48241;48.824;10.102;2022-12-08T06:58:23;1.40;93.00
62259;DHT22;48241;48.824;10.102;2022-12-08T07:00:48;1.40;93.00
62259;DHT22;48241;48.824;10.102;2022-12-08T07:03:14;1.40;92.90
62259;DHT22;48241;48.824;10.102;2022-12-08T07:05:40;1.40;93.20
62259;DHT22;48241;48.824;10.102;2022-12-08T07:08:07;1.50;92.70
62259;DHT22;48241;48.824;10.102;2022-12-08T07:10:33;1.30;92.60
62259;DHT22;48241;48.824;10.102;2022-12-08T07:12:59;1.30;92.80
62259;DHT22;48241;48.824;10.102;2022-12-08T07:20:33;1.40;93.10
62259;DHT22;48241;48.824;10.102;2022-12-08T07:22:59;1.40;93.00
62259;DHT22;48241;48.824;10.102;2022-12-08T07:25:24;1.40;93.20
62259;DHT22;48241;48.824;10.102;2022-12-08T07:27:50;1.30;93.40
62259;DHT22;48241;48.824;10.102;2022-12-08T07:30:17;1.40;93.00
62259;DHT22;48241;48.824;10.102;2022-12-08T07:32:43;1.50;92.90
62259;DHT22;48241;48.824;10.102;2022-12-08T07:35:09;1.30;92.80
62259;DHT22;48241;48.824;10.102;2022-12-08T07:37:36;1.40;93.20
62259;DHT22;48241;48.824;10.102;2022-12-08T07:40:03;1.60;92.60
62259;DHT22;48241;48.824;10.102;2022-12-08T07:42:29;1.50;92.70
62259;DHT22;48241;48.824;10.102;2022-12-08T07:44:54;1.50;92.90
62259;DHT22;48241;48.824;10.102;2022-12-08T07:47:20;1.40;93.30
62259;DHT22;48241;48.824;10.102;2022-12-08T07:49:46;1.30;93.10
62259;DHT22;48241;48.824;10.102;2022-12-08T07:52:11;1.60;93.60
62259;DHT22;48241;48.824;10.102;2022-12-08T07:54:37;1.60;93.30
62259;DHT22;48241;48.824;10.102;2022-12-08T07:57:02;1.70;93.40
62259;DHT22;48241;48.824;10.102;2022-12-08T07:59:30;1.70;93.10
62259;DHT22;48241;48.824;10.102;2022-12-08T08:01:56;1.80;92.50
62259;DHT22;48241;48.824;10.102;2022-12-08T08:04:21;1.70;93.00
62259;DHT22;48241;48.824;10.102;2022-12-08T08:06:47;1.70;93.10
62259;DHT22;48241;48.824;10.102;2022-12-08T08:09:12;1.70;92.80
62259;DHT22;48241;48.824;10.102;2022-12-08T08:18:28;1.70;92.90
62259;DHT22;48241;48.824;10.102;2022-12-08T08:20:54;1.70;93.30
62259;DHT22;48241;48.824;10.102;2022-12-08T08:23:20;1.60;93.50
62259;DHT22;48241;48.824;10.102;2022-12-08T08:25:45;1.50;93.40
62259;DHT22;48241;48.824;10.102;2022-12-08T08:28:11;1.60;93.70
62259;DHT22;48241;48.824;10.102;2022-12-08T08:30:36;1.90;93.40
62259;DHT22;48241;48.824;10.102;2022-12-08T08:33:02;1.90;93.00
62259;DHT22;48241;48.824;10.102;2022-12-08T08:35:27;1.80;92.80
62259;DHT22;48241;48.824;10.102;2022-12-08T08:37:53;1.90;93.20
62259;DHT22;48241;48.824;10.102;2022-12-08T08:40:19;1.90;92.90
62259;DHT22;48241;48.824;10.102;2022-12-08T08:42:44;1.80;93.30
62259;DHT22;48241;48.824;10.102;2022-12-08T08:45:10;1.90;93.60
62259;DHT22;48241;48.824;10.102;2022-12-08T08:47:35;1.80;93.30
62259;DHT22;48241;48.824;10.102;2022-12-08T08:50:01;1.80;93.40
62259;DHT22;48241;48.824;10.102;2022-12-08T08:52:27;1.90;93.60
62259;DHT22;48241;48.824;10.102;2022-12-08T08:54:53;1.90;93.60
62259;DHT22;48241;48.824;10.102;2022-12-08T08:57:19;2.00;93.50
62259;DHT22;48241;48.824;10.102;2022-12-08T08:59:44;2.10;92.80
62259;DHT22;48241;48.824;10.102;2022-12-08T09:02:15;2.20;92.50
62259;DHT22;48241;48.824;10.102;2022-12-08T09:04:42;2.20;92.70
62259;DHT22;48241;48.824;10.102;2022-12-08T09:07:07;2.20;92.70
62259;DHT22;48241;48.824;10.102;2022-12-08T09:09:33;2.30;92.50
62259;DHT22;48241;48.824;10.102;2022-12-08T09:11:58;2.40;92.40
62259;DHT22;48241;48.824;10.102;2022-12-08T09:14:24;2.40;92.10
62259;DHT22;48241;48.824;10.102;2022-12-08T09:16:50;2.40;92.10
62259;DHT22;48241;48.824;10.102;2022-12-08T09:19:15;2.50;92.10
62259;DHT22;48241;48.824;10.102;2022-12-08T09:21:41;2.50;91.90
62259;DHT22;48241;48.824;10.102;2022-12-08T09:24:07;2.50;92.00
62259;DHT22;48241;48.824;10.102;2022-12-08T09:26:40;2.40;92.00
62259;DHT22;48241;48.824;10.102;2022-12-08T09:29:06;2.50;91.80
62259;DHT22;48241;48.824;10.102;2022-12-08T09:31:31;2.50;91.60
62259;DHT22;48241;48.824;10.102;2022-12-08T09:33:57;2.50;91.90
62259;DHT22;48241;48.824;10.102;2022-12-08T09:36:24;2.50;92.10
62259;DHT22;48241;48.824;10.102;2022-12-08T09:38:49;2.40;91.90
62259;DHT22;48241;48.824;10.102;2022-12-08T09:41:22;2.40;92.30
62259;DHT22;48241;48.824;10.102;2022-12-08T09:46:42;2.30;92.80
62259;DHT22;48241;48.824;10.102;2022-12-08T09:49:16;2.50;92.70
62259;DHT22;48241;48.824;10.102;2022-12-08T09:51:46;2.50;92.80
62259;DHT22;48241;48.824;10.102;2022-12-08T09:54:14;2.60;92.50
62259;DHT22;48241;48.824;10.102;2022-12-08T09:56:42;2.60;92.50
62259;DHT22;48241;48.824;10.102;2022-12-08T10:01:36;2.80;92.60
62259;DHT22;48241;48.824;10.102;2022-12-08T10:06:54;3.10;92.60
62259;DHT22;48241;48.824;10.102;2022-12-08T10:09:42;3.20;92.30
62259;DHT22;48241;48.824;10.102;2022-12-08T10:12:58;3.10;92.30
62259;DHT22;48241;48.824;10.102;2022-12-08T10:15:43;3.30;92.50
62259;DHT22;48241;48.824;10.102;2022-12-08T10:18:24;3.30;92.40
62259;DHT22;48241;48.824;10.102;2022-12-08T10:24:21;3.50;92.30
62259;DHT22;48241;48.824;10.102;2022-12-08T10:26:49;3.40;92.50
62259;DHT22;48241;48.824;10.102;2022-12-08T10:29:14;3.50;92.50
62259;DHT22;48241;48.824;10.102;2022-12-08T10:31:40;3.70;92.60
62259;DHT22;48241;48.824;10.102;2022-12-08T10:34:15;3.80;92.10
62259;DHT22;48241;48.824;10.102;2022-12-08T10:36:56;3.70;92.50
62259;DHT22;48241;48.824;10.102;2022-12-08T10:39:41;4.00;92.40
62259;DHT22;48241;48.824;10.102;2022-12-08T10:47:39;4.50;91.10
62259;DHT22;48241;48.824;10.102;2022-12-08T10:53:00;4.70;90.40
62259;DHT22;48241;48.824;10.102;2022-12-08T10:55:27;4.70;89.60
62259;DHT22;48241;48.824;10.102;2022-12-08T10:57:53;4.80;89.00
62259;DHT22;48241;48.824;10.102;2022-12-08T11:00:27;4.40;90.20
62259;DHT22;48241;48.824;10.102;2022-12-08T11:03:02;4.60;87.90
62259;DHT22;48241;48.824;10.102;2022-12-08T11:05:40;4.60;87.10
62259;DHT22;48241;48.824;10.102;2022-12-08T11:08:07;4.50;87.80
62259;DHT22;48241;48.824;10.102;2022-12-08T11:10:43;4.50;87.20
62259;DHT22;48241;48.824;10.102;2022-12-08T11:13:22;4.50;88.20
62259;DHT22;48241;48.824;10.102;2022-12-08T11:16:20;4.40;88.80
62259;DHT22;48241;48.824;10.102;2022-12-08T11:18:56;4.30;89.00
62259;DHT22;48241;48.824;10.102;2022-12-08T11:26:58;4.00;88.60
62259;DHT22;48241;48.824;10.102;2022-12-08T11:29:26;4.00;88.40
62259;DHT22;48241;48.824;10.102;2022-12-08T11:32:11;3.80;89.30
62259;DHT22;48241;48.824;10.102;2022-12-08T11:35:05;3.60;90.00
62259;DHT22;48241;48.824;10.102;2022-12-08T11:37:32;3.70;89.70
62259;DHT22;48241;48.824;10.102;2022-12-08T11:40:04;3.70;89.70
62259;DHT22;48241;48.824;10.102;2022-12-08T11:42:48;3.70;90.00
62259;DHT22;48241;48.824;10.102;2022-12-08T11:45:21;3.80;89.90
62259;DHT22;48241;48.824;10.102;2022-12-08T11:48:00;3.70;90.10
62259;DHT22;48241;48.824;10.102;2022-12-08T11:53:58;3.50;90.60
62259;DHT22;48241;48.824;10.102;2022-12-08T11:56:37;3.80;90.60
62259;DHT22;48241;48.824;10.102;2022-12-08T11:59:18;3.80;90.50
62259;DHT22;48241;48.824;10.102;2022-12-08T12:01:46;3.90;90.20
62259;DHT22;48241;48.824;10.102;2022-12-08T12:04:24;3.80;90.90
62259;DHT22;48241;48.824;10.102;2022-12-08T12:09:58;4.60;90.00
62259;DHT22;48241;48.824;10.102;2022-12-08T12:18:21;5.10;87.10
62259;DHT22;48241;48.824;10.102;2022-12-08T12:20:55;5.20;87.70
62259;DHT22;48241;48.824;10.102;2022-12-08T12:23:35;5.30;89.10
62259;DHT22;48241;48.824;10.102;2022-12-08T12:26:05;5.60;86.10
62259;DHT22;48241;48.824;10.102;2022-12-08T12:28:46;5.70;86.10
62259;DHT22;48241;48.824;10.102;2022-12-08T12:31:35;6.00;85.10
62259;DHT22;48241;48.824;10.102;2022-12-08T12:34:18;6.20;82.20
62259;DHT22;48241;48.824;10.102;2022-12-08T12:36:58;6.10;82.30
62259;DHT22;48241;48.824;10.102;2022-12-08T12:39:30;6.30;81.60
62259;DHT22;48241;48.824;10.102;2022-12-08T12:42:00;6.50;80.90
62259;DHT22;48241;48.824;10.102;2022-12-08T13:10:46;7.00;75.90
62259;DHT22;48241;48.824;10.102;2022-12-08T13:13:15;7.10;76.20
62259;DHT22;48241;48.824;10.102;2022-12-08T13:19:02;7.00;76.30
62259;DHT22;48241;48.824;10.102;2022-12-08T13:21:34;6.90;76.00
62259;DHT22;48241;48.824;10.102;2022-12-08T13:37:02;6.50;76.40
62259;DHT22;48241;48.824;10.102;2022-12-08T13:50:15;5.80;80.10
62259;DHT22;48241;48.824;10.102;2022-12-08T13:52:59;5.70;78.90
62259;DHT22;48241;48.824;10.102;2022-12-08T13:55:28;5.60;80.30
62259;DHT22;48241;48.824;10.102;2022-12-08T13:57:55;5.40;80.80
62259;DHT22;48241;48.824;10.102;2022-12-08T16:20:48;3.30;88.70
62259;DHT22;48241;48.824;10.102;2022-12-08T16:23:14;3.20;89.10
62259;DHT22;48241;48.824;10.102;2022-12-08T16:25:48;3.20;89.10
62259;DHT22;48241;48.824;10.102;2022-12-08T16:28:14;3.20;89.00
62259;DHT22;48241;48.824;10.102;2022-12-08T16:30:39;3.10;89.50
62259;DHT22;48241;48.824;10.102;2022-12-08T16:33:12;3.10;90.00
62259;DHT22;48241;48.824;10.102;2022-12-08T16:35:41;3.00;90.10
62259;DHT22;48241;48.824;10.102;2022-12-08T16:38:07;2.80;90.30
62259;DHT22;48241;48.824;10.102;2022-12-08T16:40:34;2.80;90.60
62259;DHT22;48241;48.824;10.102;2022-12-08T16:43:21;2.70;91.10
62259;DHT22;48241;48.824;10.102;2022-12-08T16:45:46;2.40;91.70
62259;DHT22;48241;48.824;10.102;2022-12-08T17:08:50;3.40;90.60
62259;DHT22;48241;48.824;10.102;2022-12-08T17:11:22;3.70;90.10
62259;DHT22;48241;48.824;10.102;2022-12-08T17:13:48;3.70;89.70
62259;DHT22;48241;48.824;10.102;2022-12-08T17:16:16;3.80;90.10
62259;DHT22;48241;48.824;10.102;2022-12-08T17:18:43;3.90;89.80
62259;DHT22;48241;48.824;10.102;2022-12-08T17:21:10;3.90;89.20
62259;DHT22;48241;48.824;10.102;2022-12-08T17:23:37;3.90;90.00
62259;DHT22;48241;48.824;10.102;2022-12-08T17:26:03;4.10;89.70
62259;DHT22;48241;48.824;10.102;2022-12-08T17:28:29;4.00;89.90
62259;DHT22;48241;48.824;10.102;2022-12-08T17:30:54;4.20;87.10
62259;DHT22;48241;48.824;10.102;2022-12-08T17:33:20;4.30;86.30
62259;DHT22;48241;48.824;10.102;2022-12-08T17:35:47;4.40;87.10
62259;DHT22;48241;48.824;10.102;2022-12-08T17:38:13;4.30;87.40
62259;DHT22;48241;48.824;10.102;2022-12-08T17:40:39;4.40;85.80
62259;DHT22;48241;48.824;10.102;2022-12-08T17:43:04;4.40;85.40
62259;DHT22;48241;48.824;10.102;2022-12-08T17:45:30;4.30;86.80
62259;DHT22;48241;48.824;10.102;2022-12-08T17:47:55;4.20;86.60
62259;DHT22;48241;48.824;10.102;2022-12-08T17:50:21;4.20;86.80
62259;DHT22;48241;48.824;10.102;2022-12-08T17:52:49;4.40;86.20
62259;DHT22;48241;48.824;10.102;2022-12-08T17:55:16;4.40;86.60
62259;DHT22;48241;48.824;10.102;2022-12-08T17:57:41;4.60;86.20
62259;DHT22;48241;48.824;10.102;2022-12-08T18:00:11;4.60;86.20
62259;DHT22;48241;48.824;10.102;2022-12-08T18:02:38;4.70;86.10
62259;DHT22;48241;48.824;10.102;2022-12-08T18:05:04;4.60;87.00
62259;DHT22;48241;48.824;10.102;2022-12-08T18:07:30;4.60;86.80
62259;DHT22;48241;48.824;10.102;2022-12-08T18:09:55;4.70;86.50
62259;DHT22;48241;48.824;10.102;2022-12-08T18:12:21;4.90;86.50
62259;DHT22;48241;48.824;10.102;2022-12-08T18:14:47;4.90;86.30
62259;DHT22;48241;48.824;10.102;2022-12-08T18:17:13;4.90;86.00
62259;DHT22;48241;48.824;10.102;2022-12-08T18:19:39;5.00;85.10
62259;DHT22;48241;48.824;10.102;2022-12-08T18:22:04;5.00;84.00
62259;DHT22;48241;48.824;10.102;2022-12-08T18:24:30;4.90;83.40
62259;DHT22;48241;48.824;10.102;2022-12-08T18:26:56;5.00;83.30
62259;DHT22;48241;48.824;10.102;2022-12-08T18:29:23;5.00;83.00
62259;DHT22;48241;48.824;10.102;2022-12-08T18:31:49;4.80;84.00
62259;DHT22;48241;48.824;10.102;2022-12-08T18:34:15;4.80;84.20
62259;DHT22;48241;48.824;10.102;2022-12-08T18:36:44;4.80;85.30
62259;DHT22;48241;48.824;10.102;2022-12-08T18:39:24;4.80;84.70
62259;DHT22;48241;48.824;10.102;2022-12-08T18:41:51;4.80;84.40
62259;DHT22;48241;48.824;10.102;2022-12-08T18:44:17;4.80;82.90
62259;DHT22;48241;48.824;10.102;2022-12-08T18:46:43;4.70;82.80
62259;DHT22;48241;48.824;10.102;2022-12-08T18:49:13;4.50;84.70
62259;DHT22;48241;48.824;10.102;2022-12-08T18:51:41;4.50;83.70
62259;DHT22;48241;48.824;10.102;2022-12-08T18:54:07;5.20;84.20
62259;DHT22;48241;48.824;10.102;2022-12-08T18:56:34;4.70;84.00
62259;DHT22;48241;48.824;10.102;2022-12-08T18:59:05;4.40;85.60
62259;DHT22;48241;48.824;10.102;2022-12-08T19:01:32;4.50;85.40
62259;DHT22;48241;48.824;10.102;2022-12-08T19:03:59;4.60;85.40
62259;DHT22;48241;48.824;10.102;2022-12-08T19:06:25;4.70;84.30
62259;DHT22;48241;48.824;10.102;2022-12-08T19:08:51;4.70;84.20
62259;DHT22;48241;48.824;10.102;2022-12-08T19:11:25;4.80;83.40
62259;DHT22;48241;48.824;10.102;2022-12-08T19:13:51;4.80;83.40
62259;DHT22;48241;48.824;10.102;2022-12-08T19:16:17;4.60;83.00
62259;DHT22;48241;48.824;10.102;2022-12-08T22:55:57;0.80;90.80
62259;DHT22;48241;48.824;10.102;2022-12-08T22:58:25;0.80;90.70
62259;DHT22;48241;48.824;10.102;2022-12-08T23:00:55;0.70;90.70
62259;DHT22;48241;48.824;10.102;2022-12-08T23:03:24;0.50;91.00
62259;DHT22;48241;48.824;10.102;2022-12-08T23:06:00;0.40;91.40
62259;DHT22;48241;48.824;10.102;2022-12-08T23:08:29;0.80;90.80
62259;DHT22;48241;48.824;10.102;2022-12-08T23:11:11;0.80;90.60
62259;DHT22;48241;48.824;10.102;2022-12-08T23:13:56;0.90;90.60
62259;DHT22;48241;48.824;10.102;2022-12-08T23:16:29;0.80;90.40
62259;DHT22;48241;48.824;10.102;2022-12-08T23:18:57;0.80;90.10
62259;DHT22;48241;48.824;10.102;2022-12-08T23:21:28;0.90;90.20
62259;DHT22;48241;48.824;10.102;2022-12-08T23:24:27;1.00;90.00
62259;DHT22;48241;48.824;10.102;2022-12-08T23:27:26;0.90;89.90
62259;DHT22;48241;48.824;10.102;2022-12-08T23:30:15;0.90;89.40
62259;DHT22;48241;48.824;10.102;2022-12-08T23:32:58;1.00;88.70
62259;DHT22;48241;48.824;10.102;2022-12-08T23:38:33;1.00;88.50
62259;DHT22;48241;48.824;10.102;2022-12-08T23:41:06;0.90;88.40
62259;DHT22;48241;48.824;10.102;2022-12-08T23:43:53;1.10;87.90
62259;DHT22;48241;48.824;10.102;2022-12-08T23:46:24;1.00;88.10
62259;DHT22;48241;48.824;10.102;2022-12-08T23:51:33;0.80;88.20
62259;DHT22;48241;48.824;10.102;2022-12-08T23:54:06;0.80;88.70
